Time;durP1;ratioP1;P1;durP2;ratioP2;P2;SDS_P1;SDS_P2;PMS_P1;PMS_P2;Temp;Humidity;BMP_temperature;BMP_pressure;BME280_temperature;BME280_humidity;BME280_pressure;Samples;Min_cycle;Max_cycle;Signal;HPM_P1;HPM_P2
2022/08/13 00:01:04;;;;;;;2.63;2.30;;;20.00;99.90;;;;;;5052397;28;20453;-52
2022/08/13 00:03:32;;;;;;;4.40;2.40;;;20.00;99.90;;;;;;5055603;28;20465;-51
2022/08/13 00:06:02;;;;;;;2.97;2.30;;;19.90;99.90;;;;;;5048932;28;21041;-51
2022/08/13 00:08:31;;;;;;;2.47;1.77;;;19.90;99.90;;;;;;5052586;28;20824;-51
2022/08/13 00:10:57;;;;;;;8.00;2.20;;;19.90;99.90;;;;;;5052229;28;20458;-51
2022/08/13 00:13:24;;;;;;;13.90;3.07;;;19.90;99.90;;;;;;5043951;28;20458;-51
2022/08/13 00:15:51;;;;;;;3.30;2.03;;;19.80;99.90;;;;;;5053271;28;20859;-52
2022/08/13 00:18:20;;;;;;;4.27;2.60;;;19.80;99.90;;;;;;5052947;28;20500;-51
2022/08/13 00:20:49;;;;;;;8.50;2.30;;;19.80;99.90;;;;;;5052874;28;20466;-51
2022/08/13 00:23:18;;;;;;;2.20;2.10;;;19.80;99.90;;;;;;5055051;28;20509;-50
2022/08/13 00:25:48;;;;;;;6.27;2.50;;;19.80;99.90;;;;;;5056475;28;20999;-51
2022/08/13 00:28:18;;;;;;;2.73;2.00;;;19.70;99.90;;;;;;5051616;28;20449;-50
2022/08/13 00:30:47;;;;;;;3.57;2.77;;;19.80;99.90;;;;;;5053947;28;20839;-51
2022/08/13 00:33:15;;;;;;;5.50;2.30;;;19.70;99.90;;;;;;5048497;28;20461;-50
2022/08/13 00:35:44;;;;;;;2.13;1.93;;;19.70;99.90;;;;;;5052212;28;20935;-51
2022/08/13 00:38:13;;;;;;;3.93;2.80;;;19.70;99.90;;;;;;5055570;28;20462;-51
2022/08/13 00:40:42;;;;;;;3.10;2.40;;;19.70;99.90;;;;;;5052098;28;20450;-50
2022/08/13 00:43:10;;;;;;;3.03;2.83;;;19.70;99.90;;;;;;5047511;28;20462;-51
2022/08/13 00:45:37;;;;;;;2.90;2.30;;;19.60;99.90;;;;;;5051764;28;20515;-50
2022/08/13 00:50:50;;;;;;;2.33;2.13;;;19.50;99.90;;;;;;5053084;28;20530;-51
2022/08/13 00:53:19;;;;;;;2.67;2.33;;;19.50;99.90;;;;;;5053297;28;20975;-50
2022/08/13 00:55:48;;;;;;;7.20;3.07;;;19.50;99.90;;;;;;5051207;28;20514;-51
2022/08/13 00:58:16;;;;;;;3.17;2.87;;;19.50;99.90;;;;;;5050007;28;20454;-50
2022/08/13 01:00:47;;;;;;;4.27;2.40;;;19.50;99.90;;;;;;5056058;28;20449;-51
2022/08/13 01:03:14;;;;;;;2.93;2.30;;;19.50;99.90;;;;;;5043141;28;20515;-51
2022/08/13 01:05:42;;;;;;;2.80;2.13;;;19.40;99.90;;;;;;5055292;28;20507;-51
2022/08/13 01:08:10;;;;;;;4.67;2.30;;;19.50;99.90;;;;;;5051958;28;20438;-50
2022/08/13 01:10:38;;;;;;;5.70;3.10;;;19.40;99.90;;;;;;5051210;28;20481;-51
2022/08/13 01:13:07;;;;;;;7.20;2.67;;;19.40;99.90;;;;;;5048909;28;20489;-51
2022/08/13 01:15:36;;;;;;;3.67;2.13;;;19.40;99.90;;;;;;5045821;28;20539;-51
2022/08/13 01:18:03;;;;;;;3.70;1.93;;;19.40;99.90;;;;;;5057088;28;20536;-50
2022/08/13 01:20:34;;;;;;;2.43;2.27;;;19.40;99.90;;;;;;5054987;28;20442;-50
2022/08/13 01:23:04;;;;;;;4.07;2.93;;;19.40;99.90;;;;;;5051193;28;20491;-51
2022/08/13 01:25:32;;;;;;;21.13;2.90;;;19.40;99.90;;;;;;5056760;28;20507;-51
2022/08/13 01:27:59;;;;;;;3.33;2.60;;;19.30;99.90;;;;;;5053849;28;20462;-51
2022/08/13 01:30:26;;;;;;;3.77;2.53;;;19.30;99.90;;;;;;5051718;28;20489;-50
2022/08/13 01:32:54;;;;;;;4.13;2.50;;;19.30;99.00;;;;;;5051522;28;20461;-50
2022/08/13 01:35:22;;;;;;;3.40;3.07;;;19.30;99.90;;;;;;5053554;28;20462;-50
2022/08/13 01:37:53;;;;;;;9.13;2.83;;;19.20;99.90;;;;;;5056812;28;20485;-51
2022/08/13 01:40:22;;;;;;;5.13;2.23;;;19.20;97.20;;;;;;5050619;28;20482;-51
2022/08/13 01:42:50;;;;;;;2.40;2.20;;;19.20;97.30;;;;;;5043228;28;20928;-51
2022/08/13 01:45:17;;;;;;;2.80;2.27;;;19.20;97.20;;;;;;5051713;28;20449;-52
2022/08/13 01:50:29;;;;;;;21.13;3.40;;;19.10;95.60;;;;;;5050371;28;21049;-52
2022/08/13 01:53:01;;;;;;;3.37;2.77;;;19.10;96.00;;;;;;5053261;28;20462;-51
2022/08/13 01:55:37;;;;;;;2.47;2.37;;;19.10;94.80;;;;;;5052856;28;20461;-50
2022/08/13 01:58:05;;;;;;;3.93;2.63;;;19.10;94.50;;;;;;5050265;28;20470;-51
2022/08/13 02:00:32;;;;;;;2.77;2.57;;;19.00;95.90;;;;;;5050436;28;20479;-51
2022/08/13 02:03:01;;;;;;;2.93;2.57;;;19.00;93.00;;;;;;5049340;28;20458;-51
2022/08/13 02:05:28;;;;;;;3.27;2.57;;;19.00;94.50;;;;;;5050086;28;20502;-49
2022/08/13 02:07:55;;;;;;;2.53;2.40;;;19.00;92.90;;;;;;5054018;28;20477;-51
2022/08/13 02:10:23;;;;;;;3.53;2.63;;;19.00;91.50;;;;;;5047419;28;20578;-52
2022/08/13 02:12:51;;;;;;;3.10;2.80;;;19.00;90.90;;;;;;5048118;28;20822;-52
2022/08/13 02:15:18;;;;;;;4.33;3.07;;;18.90;90.60;;;;;;5050834;28;20450;-51
2022/08/13 02:17:45;;;;;;;3.90;2.77;;;18.90;89.20;;;;;;5055183;28;20478;-50
2022/08/13 02:20:17;;;;;;;7.33;3.03;;;18.90;90.00;;;;;;5046216;28;20999;-50
2022/08/13 02:22:46;;;;;;;2.83;2.63;;;18.80;88.60;;;;;;5045566;28;20462;-50
2022/08/13 02:25:14;;;;;;;5.57;3.00;;;18.80;86.10;;;;;;5046374;28;20456;-51
2022/08/13 02:27:41;;;;;;;5.83;3.00;;;18.80;85.00;;;;;;5050207;28;20561;-50
2022/08/13 02:30:11;;;;;;;6.43;2.67;;;18.80;84.10;;;;;;5049459;28;20547;-51
2022/08/13 02:32:38;;;;;;;5.43;2.53;;;18.70;83.10;;;;;;5064339;28;20535;-50
2022/08/13 02:35:06;;;;;;;6.73;2.47;;;18.80;83.30;;;;;;5053300;28;20951;-51
2022/08/13 02:37:33;;;;;;;2.63;2.43;;;18.70;80.30;;;;;;5057754;28;20521;-51
2022/08/13 02:40:01;;;;;;;4.93;2.93;;;18.70;76.50;;;;;;5054120;28;20449;-51
2022/08/13 02:42:31;;;;;;;4.20;2.83;;;18.70;79.80;;;;;;5053967;28;20468;-51
2022/08/13 02:44:58;;;;;;;5.23;2.70;;;18.70;77.40;;;;;;5054467;28;20503;-51
2022/08/13 02:47:26;;;;;;;6.47;3.03;;;18.70;77.40;;;;;;5064718;28;20481;-51
2022/08/13 02:49:53;;;;;;;3.67;2.50;;;18.70;75.90;;;;;;5052577;28;20477;-52
2022/08/13 02:52:20;;;;;;;4.13;2.57;;;18.70;75.20;;;;;;5051338;28;20462;-51
2022/08/13 02:54:49;;;;;;;5.13;2.07;;;18.70;74.80;;;;;;5055741;28;20462;-52
2022/08/13 02:57:15;;;;;;;8.40;3.23;;;18.60;74.90;;;;;;5056772;28;20582;-51
2022/08/13 02:59:43;;;;;;;2.93;2.73;;;18.60;73.10;;;;;;5054596;28;20468;-51
2022/08/13 03:02:11;;;;;;;6.53;2.97;;;18.60;71.80;;;;;;5057161;28;20458;-50
2022/08/13 03:04:44;;;;;;;12.17;3.27;;;18.60;71.50;;;;;;5051935;28;20458;-51
2022/08/13 03:07:11;;;;;;;3.17;2.93;;;18.50;71.10;;;;;;5047244;28;20482;-51
2022/08/13 03:09:38;;;;;;;4.10;2.53;;;18.50;71.20;;;;;;5054097;28;20458;-50
2022/08/13 03:12:06;;;;;;;7.13;3.07;;;18.50;69.00;;;;;;5052512;28;20462;-52
2022/08/13 03:14:36;;;;;;;3.30;2.93;;;18.50;69.90;;;;;;5053888;28;20442;-50
2022/08/13 03:17:03;;;;;;;5.63;3.30;;;18.50;68.70;;;;;;5053168;28;20470;-51
2022/08/13 03:19:30;;;;;;;4.87;3.00;;;18.40;67.20;;;;;;5052586;28;20932;-51
2022/08/13 03:21:58;;;;;;;5.03;3.00;;;18.40;65.40;;;;;;5053222;28;20456;-51
2022/08/13 03:24:25;;;;;;;6.67;3.10;;;18.40;65.30;;;;;;5053975;28;20464;-51
2022/08/13 03:26:52;;;;;;;6.67;3.17;;;18.40;66.00;;;;;;5055029;28;20891;-50
2022/08/13 03:29:19;;;;;;;5.50;2.67;;;18.30;66.50;;;;;;5053908;28;20541;-51
2022/08/13 03:31:47;;;;;;;3.13;2.93;;;18.30;66.20;;;;;;5051580;28;20918;-51
2022/08/13 03:34:13;;;;;;;3.23;3.03;;;18.30;67.30;;;;;;5052767;28;20825;-51
2022/08/13 03:36:40;;;;;;;4.43;3.50;;;18.30;64.40;;;;;;5052483;28;20478;-51
2022/08/13 03:39:08;;;;;;;4.50;3.03;;;18.30;63.30;;;;;;5057794;28;20496;-51
2022/08/13 03:41:35;;;;;;;3.87;2.27;;;18.20;63.70;;;;;;5052057;28;20496;-51
2022/08/13 03:44:02;;;;;;;3.43;3.10;;;18.20;62.20;;;;;;5052864;28;20454;-52
2022/08/13 03:46:28;;;;;;;3.90;3.03;;;18.20;57.50;;;;;;5051146;28;20505;-51
2022/08/13 03:48:55;;;;;;;5.30;3.27;;;18.20;61.00;;;;;;5041356;28;20454;-51
2022/08/13 03:51:23;;;;;;;3.10;2.67;;;18.20;57.40;;;;;;5048132;28;20474;-51
2022/08/13 03:53:50;;;;;;;5.20;2.70;;;18.20;58.40;;;;;;5052068;28;20470;-50
2022/08/13 03:56:18;;;;;;;3.37;3.00;;;18.20;59.20;;;;;;5047106;28;20474;-52
2022/08/13 03:58:46;;;;;;;5.60;3.17;;;18.20;57.30;;;;;;5052877;28;20464;-50
2022/08/13 04:01:15;;;;;;;2.87;2.57;;;18.20;53.80;;;;;;5051754;28;20842;-49
2022/08/13 04:03:42;;;;;;;4.30;3.00;;;18.20;54.30;;;;;;5051887;28;20968;-51
2022/08/13 04:06:12;;;;;;;3.57;2.80;;;18.20;54.10;;;;;;5049418;28;20486;-49
2022/08/13 04:08:39;;;;;;;11.63;3.00;;;18.10;53.30;;;;;;5048176;28;20834;-49
2022/08/13 04:11:08;;;;;;;3.77;3.47;;;18.10;52.90;;;;;;5052847;28;20482;-49
2022/08/13 04:13:37;;;;;;;3.03;2.83;;;18.10;50.20;;;;;;5051363;28;20461;-50
2022/08/13 04:16:07;;;;;;;4.40;2.50;;;18.10;48.40;;;;;;5057415;28;20538;-49
2022/08/13 04:18:35;;;;;;;5.03;2.60;;;18.10;47.90;;;;;;5050144;28;20556;-48
2022/08/13 04:21:03;;;;;;;3.17;2.97;;;18.10;46.80;;;;;;5054535;28;20454;-49
2022/08/13 04:23:29;;;;;;;3.43;3.07;;;18.10;46.60;;;;;;5057512;28;20437;-49
2022/08/13 04:25:56;;;;;;;4.80;2.77;;;18.10;42.20;;;;;;5053205;28;20473;-49
2022/08/13 04:28:23;;;;;;;3.37;3.07;;;18.10;44.10;;;;;;5051038;28;20990;-50
2022/08/13 04:30:51;;;;;;;3.07;2.87;;;18.10;46.40;;;;;;5052558;28;20995;-49
2022/08/13 04:33:18;;;;;;;9.33;3.27;;;18.10;44.90;;;;;;5049984;28;20462;-49
2022/08/13 04:35:45;;;;;;;8.13;3.30;;;18.10;40.50;;;;;;5051748;28;20462;-50
2022/08/13 04:38:12;;;;;;;4.27;2.83;;;18.10;40.30;;;;;;5059003;28;20458;-49
2022/08/13 04:40:41;;;;;;;3.27;2.70;;;18.10;33.90;;;;;;5053235;28;20458;-49
2022/08/13 04:43:10;;;;;;;6.70;2.83;;;18.00;40.70;;;;;;5051603;28;20840;-49
2022/08/13 04:45:37;;;;;;;3.17;2.87;;;18.10;41.80;;;;;;5059202;28;20812;-49
2022/08/13 04:48:09;;;;;;;3.73;3.37;;;18.10;40.50;;;;;;5049626;28;20454;-49
2022/08/13 04:50:37;;;;;;;6.47;3.17;;;18.00;35.40;;;;;;5058483;28;20476;-49
2022/08/13 04:53:06;;;;;;;11.53;3.57;;;18.00;34.30;;;;;;5050882;28;20442;-48
2022/08/13 04:55:34;;;;;;;3.07;2.87;;;18.10;35.30;;;;;;5053974;28;20461;-49
2022/08/13 04:58:01;;;;;;;3.13;2.90;;;18.10;31.70;;;;;;5056650;28;20461;-50
2022/08/13 05:00:32;;;;;;;5.07;2.67;;;18.10;30.50;;;;;;5056470;28;20815;-50
2022/08/13 05:03:09;;;;;;;3.27;3.00;;;18.00;29.30;;;;;;5048835;28;20907;-49
2022/08/13 05:05:36;;;;;;;4.60;3.37;;;18.00;29.50;;;;;;5053080;28;20514;-49
2022/08/13 05:08:04;;;;;;;6.40;4.23;;;18.00;27.60;;;;;;5057987;28;20484;-49
2022/08/13 05:10:31;;;;;;;4.20;2.80;;;18.00;24.50;;;;;;5055640;28;20562;-51
2022/08/13 05:13:01;;;;;;;4.07;3.63;;;18.00;23.30;;;;;;5049884;28;20464;-49
2022/08/13 05:15:28;;;;;;;3.37;2.90;;;18.00;27.50;;;;;;5052270;28;20465;-49
2022/08/13 05:17:54;;;;;;;3.50;3.07;;;18.00;23.30;;;;;;5050899;28;20485;-49
2022/08/13 05:20:22;;;;;;;5.13;3.10;;;18.10;91.20;;;;;;5048643;28;20454;-49
2022/08/13 05:22:49;;;;;;;4.50;3.60;;;18.10;86.80;;;;;;5051576;28;20487;-49
2022/08/13 05:25:16;;;;;;;4.40;3.27;;;18.10;99.90;;;;;;5050672;28;20453;-49
2022/08/13 05:27:42;;;;;;;7.40;3.03;;;18.20;99.90;;;;;;5055482;28;20913;-50
2022/08/13 05:30:12;;;;;;;3.80;3.20;;;18.30;99.90;;;;;;5051060;28;20541;-48
2022/08/13 05:32:39;;;;;;;5.43;2.73;;;18.30;99.90;;;;;;5050202;28;20463;-50
2022/08/13 05:35:08;;;;;;;5.57;3.83;;;18.30;85.90;;;;;;5058320;28;20814;-50
2022/08/13 05:37:36;;;;;;;12.73;3.20;;;18.40;25.20;;;;;;5048591;28;20482;-51
2022/08/13 05:40:04;;;;;;;6.27;3.70;;;18.40;30.90;;;;;;5046621;28;20462;-51
2022/08/13 05:42:33;;;;;;;3.80;3.50;;;18.50;26.00;;;;;;5041603;28;20454;-51
2022/08/13 05:45:01;;;;;;;7.67;3.03;;;18.60;30.80;;;;;;5051816;28;20485;-50
2022/08/13 05:47:28;;;;;;;3.10;2.80;;;18.60;35.60;;;;;;5050804;28;20609;-51
2022/08/13 05:49:55;;;;;;;5.30;3.40;;;18.70;25.60;;;;;;5051781;28;20430;-51
2022/08/13 05:52:23;;;;;;;3.97;3.10;;;18.80;31.20;;;;;;5053432;28;20962;-50
2022/08/13 05:54:55;;;;;;;5.10;3.43;;;18.90;35.80;;;;;;5054187;28;20852;-50
2022/08/13 05:57:22;;;;;;;4.07;3.07;;;19.00;40.00;;;;;;5053085;28;20491;-50
2022/08/13 06:05:17;;;;;;;3.37;3.10;;;19.30;43.40;;;;;;5044312;28;20445;-50
2022/08/13 06:07:44;;;;;;;10.93;3.90;;;19.30;44.20;;;;;;5056797;28;20478;-51
2022/08/13 06:10:14;;;;;;;7.43;3.50;;;19.40;45.90;;;;;;5047577;28;20430;-51
2022/08/13 06:12:43;;;;;;;3.43;3.23;;;19.50;47.90;;;;;;5052093;28;20501;-50
2022/08/13 06:15:11;;;;;;;3.17;2.97;;;19.60;51.70;;;;;;5053577;28;20486;-50
2022/08/13 06:17:38;;;;;;;4.23;3.47;;;19.60;52.60;;;;;;5051545;28;20478;-50
2022/08/13 06:20:06;;;;;;;6.07;3.23;;;19.70;53.40;;;;;;5054938;28;20511;-50
2022/08/13 06:22:34;;;;;;;5.90;3.83;;;19.80;54.40;;;;;;5055927;28;20511;-50
2022/08/13 06:25:02;;;;;;;4.70;3.40;;;19.90;55.00;;;;;;5055061;28;20493;-51
2022/08/13 06:27:30;;;;;;;5.33;3.60;;;20.00;56.40;;;;;;5058905;28;20480;-52
2022/08/13 06:29:59;;;;;;;3.90;3.37;;;20.10;63.60;;;;;;5061145;28;20515;-51
2022/08/13 06:32:25;;;;;;;4.33;3.60;;;20.20;70.40;;;;;;5051922;28;20535;-51
2022/08/13 06:34:53;;;;;;;3.13;3.03;;;20.40;74.10;;;;;;5063298;28;20958;-51
2022/08/13 06:37:20;;;;;;;3.40;3.20;;;20.50;75.20;;;;;;5054918;28;20499;-50
2022/08/13 06:39:47;;;;;;;4.00;3.70;;;20.60;77.80;;;;;;5052099;28;21294;-51
2022/08/13 06:42:14;;;;;;;3.10;2.83;;;20.70;78.00;;;;;;5057308;28;20544;-51
2022/08/13 06:44:43;;;;;;;9.43;3.40;;;20.70;78.50;;;;;;5054378;28;20466;-51
2022/08/13 06:47:12;;;;;;;9.73;4.00;;;20.90;79.00;;;;;;5045674;28;20477;-51
2022/08/13 06:49:39;;;;;;;4.60;4.20;;;20.90;79.40;;;;;;5051555;28;20465;-51
2022/08/13 06:52:06;;;;;;;3.50;3.30;;;21.00;82.90;;;;;;5053812;28;20478;-50
2022/08/13 06:54:33;;;;;;;7.23;3.83;;;21.00;84.50;;;;;;5052708;28;20519;-51
2022/08/13 06:57:01;;;;;;;3.40;3.10;;;21.10;86.00;;;;;;5054317;28;20477;-51
2022/08/13 06:59:33;;;;;;;3.83;3.47;;;21.20;88.40;;;;;;5056851;28;20448;-51
2022/08/13 07:02:03;;;;;;;5.03;4.60;;;21.30;90.60;;;;;;5056666;28;20458;-51
2022/08/13 07:04:30;;;;;;;3.77;3.33;;;21.40;91.50;;;;;;5059692;28;21021;-51
2022/08/13 07:06:58;;;;;;;5.43;3.70;;;21.50;96.60;;;;;;5053816;28;21049;-51
2022/08/13 07:09:25;;;;;;;3.10;2.77;;;21.50;95.80;;;;;;5056700;28;20461;-50
2022/08/13 07:11:51;;;;;;;5.53;3.73;;;21.70;98.50;;;;;;5054262;28;20839;-50
2022/08/13 07:14:18;;;;;;;5.60;3.33;;;21.80;99.90;;;;;;5053115;28;20458;-51
2022/08/13 07:16:46;;;;;;;8.07;3.40;;;21.90;99.90;;;;;;5049304;28;20833;-51
2022/08/13 07:19:14;;;;;;;4.73;2.70;;;21.90;99.90;;;;;;5048299;28;20507;-51
2022/08/13 07:21:42;;;;;;;3.33;3.07;;;22.00;99.90;;;;;;5053370;28;20544;-51
2022/08/13 07:24:10;;;;;;;5.83;3.07;;;22.10;99.90;;;;;;5054250;28;20461;-51
2022/08/13 07:26:37;;;;;;;3.90;3.60;;;22.30;99.90;;;;;;5051830;28;20525;-51
2022/08/13 07:29:05;;;;;;;8.83;3.60;;;22.40;99.90;;;;;;5061770;28;20474;-51
2022/08/13 07:31:34;;;;;;;3.37;3.17;;;22.60;99.90;;;;;;5048876;28;20559;-51
2022/08/13 07:34:04;;;;;;;6.73;3.07;;;22.90;99.90;;;;;;5055912;28;20530;-52
2022/08/13 07:36:36;;;;;;;7.53;3.53;;;23.10;99.90;;;;;;5056662;28;20848;-50
2022/08/13 07:39:07;;;;;;;11.43;3.57;;;23.30;99.90;;;;;;5054133;28;20442;-51
2022/08/13 07:41:36;;;;;;;5.10;2.90;;;23.30;99.90;;;;;;5052356;28;20450;-51
2022/08/13 07:44:03;;;;;;;2.83;2.63;;;23.50;99.90;;;;;;5053090;28;20491;-51
2022/08/13 07:46:35;;;;;;;3.57;3.27;;;23.60;99.90;;;;;;5057138;28;20481;-51
2022/08/13 07:49:02;;;;;;;11.13;3.40;;;23.70;99.90;;;;;;5051888;28;20469;-51
2022/08/13 07:51:28;;;;;;;4.30;3.60;;;23.80;99.90;;;;;;5051342;28;20478;-51
2022/08/13 07:53:56;;;;;;;5.33;3.03;;;23.90;99.90;;;;;;5052253;28;20446;-52
2022/08/13 07:56:28;;;;;;;4.10;2.80;;;23.80;99.90;;;;;;5049881;28;20500;-51
2022/08/13 07:58:57;;;;;;;6.17;3.20;;;24.00;99.90;;;;;;5055178;28;20522;-52
2022/08/13 08:01:27;;;;;;;3.27;3.07;;;24.10;99.90;;;;;;5047932;28;20450;-51
2022/08/13 08:03:58;;;;;;;7.80;3.87;;;24.20;99.90;;;;;;5055072;28;20991;-51
2022/08/13 08:06:26;;;;;;;3.33;3.00;;;24.40;99.90;;;;;;5058433;28;20588;-51
2022/08/13 08:08:53;;;;;;;3.37;3.17;;;24.40;99.90;;;;;;5051836;28;20479;-51
2022/08/13 08:14:15;;;;;;;3.90;3.60;;;24.50;99.90;;;;;;5014744;28;20440;-51
2022/08/13 08:16:44;;;;;;;6.63;3.17;;;24.50;99.90;;;;;;5050642;28;20573;-52
2022/08/13 08:19:13;;;;;;;3.40;3.10;;;24.70;99.90;;;;;;5053035;28;20446;-51
2022/08/13 08:21:41;;;;;;;3.30;3.00;;;24.60;99.90;;;;;;5052597;28;20973;-52
2022/08/13 08:24:09;;;;;;;5.30;3.00;;;24.70;99.90;;;;;;5054248;28;20450;-51
2022/08/13 08:26:37;;;;;;;5.90;3.30;;;24.70;99.90;;;;;;5052328;28;20827;-52
2022/08/13 08:29:09;;;;;;;4.00;3.60;;;24.70;99.90;;;;;;5050629;28;20461;-52
2022/08/13 08:31:39;;;;;;;3.47;3.17;;;24.60;99.90;;;;;;5046146;28;20470;-52
2022/08/13 08:34:07;;;;;;;4.10;3.70;;;24.60;99.90;;;;;;5056647;28;20446;-51
2022/08/13 08:36:38;;;;;;;3.80;3.60;;;24.70;99.90;;;;;;5052859;28;20564;-51
2022/08/13 08:44:38;;;;;;;3.60;3.40;;;24.70;99.90;;;;;;5049045;28;20445;-51
2022/08/13 08:47:07;;;;;;;6.50;3.70;;;24.60;99.90;;;;;;5050315;28;20862;-51
2022/08/13 08:49:34;;;;;;;4.83;3.53;;;24.60;99.90;;;;;;5050981;28;20462;-50
2022/08/13 08:52:02;;;;;;;3.90;3.60;;;24.60;99.90;;;;;;5052027;28;20571;-51
2022/08/13 08:54:29;;;;;;;3.43;3.23;;;24.60;99.90;;;;;;5050664;28;20467;-51
2022/08/13 08:56:58;;;;;;;5.33;3.30;;;24.60;99.90;;;;;;5052096;28;20494;-51
2022/08/13 08:59:26;;;;;;;7.90;4.40;;;24.70;99.90;;;;;;5051717;28;20500;-51
2022/08/13 09:01:55;;;;;;;4.90;3.73;;;24.60;99.90;;;;;;5056095;28;20541;-51
2022/08/13 09:04:25;;;;;;;4.17;3.83;;;24.70;99.90;;;;;;5054190;28;20449;-51
2022/08/13 09:06:53;;;;;;;4.93;4.30;;;24.80;99.90;;;;;;5054144;28;20484;-51
2022/08/13 09:09:21;;;;;;;4.80;4.40;;;25.00;99.90;;;;;;5050927;28;20834;-51
2022/08/13 09:11:49;;;;;;;4.60;4.30;;;25.30;99.90;;;;;;5048456;28;20571;-51
2022/08/13 09:14:18;;;;;;;5.07;4.20;;;25.40;99.90;;;;;;5051967;28;20438;-51
2022/08/13 09:16:46;;;;;;;5.87;5.30;;;25.50;99.90;;;;;;5050242;28;20543;-51
2022/08/13 09:19:13;;;;;;;6.03;5.50;;;25.70;99.90;;;;;;5051428;28;20849;-51
2022/08/13 09:21:43;;;;;;;6.53;4.63;;;26.00;99.90;;;;;;5050078;28;20464;-50
2022/08/13 09:24:12;;;;;;;8.70;5.80;;;26.30;99.90;;;;;;5049236;28;20829;-51
2022/08/13 09:26:39;;;;;;;8.30;5.63;;;26.40;99.90;;;;;;5050794;28;20482;-52
2022/08/13 09:29:08;;;;;;;10.37;5.80;;;26.60;99.90;;;;;;5053385;28;20504;-51
2022/08/13 09:31:36;;;;;;;6.13;5.53;;;26.60;99.90;;;;;;5051028;28;20457;-51
2022/08/13 09:34:03;;;;;;;13.07;6.33;;;26.70;99.90;;;;;;5050249;28;20514;-50
2022/08/13 09:36:31;;;;;;;8.07;6.03;;;26.80;99.90;;;;;;5058409;28;20480;-51
2022/08/13 09:38:58;;;;;;;19.30;14.10;;;26.70;99.90;;;;;;5054999;28;20457;-52
2022/08/13 09:41:28;;;;;;;12.03;10.27;;;26.60;99.90;;;;;;5050955;28;20479;-52
2022/08/13 09:43:57;;;;;;;18.10;13.40;;;26.50;99.90;;;;;;5049244;28;20461;-51
2022/08/13 09:46:24;;;;;;;23.70;16.67;;;26.40;99.90;;;;;;5056048;28;20479;-51
2022/08/13 09:48:54;;;;;;;8.93;7.33;;;26.40;99.90;;;;;;5049480;28;20458;-51
2022/08/13 09:51:22;;;;;;;5.07;4.70;;;26.30;99.90;;;;;;5048597;28;20491;-52
2022/08/13 09:53:50;;;;;;;5.40;5.00;;;26.30;99.90;;;;;;5050225;28;20849;-51
2022/08/13 09:56:17;;;;;;;4.97;4.57;;;26.30;99.90;;;;;;5052321;28;20493;-51
2022/08/13 09:58:46;;;;;;;12.20;9.73;;;26.20;99.90;;;;;;5062795;22;20486;-53
2022/08/13 10:01:13;;;;;;;5.50;5.00;;;26.10;99.90;;;;;;5047354;28;20509;-53
2022/08/13 10:03:41;;;;;;;18.83;4.90;;;26.10;99.90;;;;;;5047235;28;20557;-51
2022/08/13 10:06:10;;;;;;;6.90;5.70;;;26.00;99.90;;;;;;5049380;28;20900;-51
2022/08/13 10:08:37;;;;;;;25.47;17.13;;;26.00;99.90;;;;;;5044237;28;20487;-52
2022/08/13 10:11:04;;;;;;;27.03;17.13;;;26.00;99.90;;;;;;5045811;28;20450;-52
2022/08/13 10:13:31;;;;;;;12.90;5.50;;;25.90;99.90;;;;;;5030791;28;20478;-52
2022/08/13 10:15:59;;;;;;;6.57;4.40;;;25.90;99.90;;;;;;5039955;28;20459;-52
2022/08/13 10:18:31;;;;;;;15.33;9.80;;;25.90;99.90;;;;;;5034784;28;20516;-52
2022/08/13 10:20:58;;;;;;;14.03;5.83;;;25.90;99.90;;;;;;5029688;28;20573;-50
2022/08/13 10:23:26;;;;;;;7.23;6.60;;;25.90;99.90;;;;;;5039483;28;20451;-52
2022/08/13 10:25:53;;;;;;;8.90;6.63;;;25.80;99.90;;;;;;5041782;28;20454;-52
2022/08/13 10:28:23;;;;;;;11.53;5.63;;;25.80;99.90;;;;;;5030637;28;20466;-52
2022/08/13 10:30:50;;;;;;;9.83;5.40;;;25.80;99.90;;;;;;5029911;28;20481;-54
2022/08/13 10:33:17;;;;;;;7.40;5.00;;;25.80;99.90;;;;;;5030586;28;20532;-55
2022/08/13 10:35:44;;;;;;;7.33;5.90;;;25.70;99.90;;;;;;5035458;28;20457;-52
2022/08/13 10:38:16;;;;;;;5.37;4.87;;;25.70;99.90;;;;;;5035801;28;20865;-54
2022/08/13 10:40:44;;;;;;;10.63;4.80;;;25.70;99.90;;;;;;5035132;28;20485;-53
2022/08/13 10:43:11;;;;;;;5.10;4.60;;;25.70;99.90;;;;;;5032837;28;20503;-54
2022/08/13 10:45:42;;;;;;;6.83;6.27;;;25.70;99.90;;;;;;5039645;28;20513;-54
2022/08/13 10:48:11;;;;;;;6.10;5.20;;;25.70;99.90;;;;;;5035875;28;20506;-54
2022/08/13 10:50:38;;;;;;;11.87;5.30;;;25.80;99.90;;;;;;5035633;28;20439;-55
2022/08/13 10:53:06;;;;;;;13.80;5.73;;;25.70;99.90;;;;;;5037184;28;20872;-52
2022/08/13 10:55:35;;;;;;;8.80;5.90;;;25.70;99.90;;;;;;5036253;28;20457;-54
2022/08/13 10:58:13;;;;;;;10.10;6.40;;;25.60;99.90;;;;;;5054427;28;20524;-53
2022/08/13 11:00:40;;;;;;;9.30;8.13;;;25.60;99.90;;;;;;5042676;28;20497;-53
2022/08/13 11:03:06;;;;;;;5.33;4.80;;;25.50;99.90;;;;;;5052955;28;21000;-53
2022/08/13 11:05:33;;;;;;;4.40;4.10;;;25.60;99.90;;;;;;5038733;28;20550;-53
2022/08/13 11:07:59;;;;;;;12.13;7.87;;;25.50;99.90;;;;;;5041098;28;20560;-52
2022/08/13 11:10:26;;;;;;;115.53;37.73;;;25.60;99.90;;;;;;5033448;28;20478;-52
2022/08/13 11:12:53;;;;;;;37.00;16.17;;;25.60;99.90;;;;;;5041595;28;20992;-52
2022/08/13 11:15:21;;;;;;;16.80;10.17;;;25.70;99.90;;;;;;5034909;28;20519;-52
2022/08/13 11:17:50;;;;;;;6.60;6.00;;;25.70;99.90;;;;;;5032103;28;20540;-52
2022/08/13 11:20:19;;;;;;;14.33;10.77;;;25.70;99.90;;;;;;5039469;28;20860;-53
2022/08/13 11:22:48;;;;;;;10.80;7.97;;;25.70;99.90;;;;;;5032552;28;20455;-54
2022/08/13 11:25:14;;;;;;;7.07;6.20;;;25.70;99.90;;;;;;5042345;28;20443;-53
2022/08/13 11:27:41;;;;;;;9.90;8.30;;;25.70;99.90;;;;;;5030966;28;20927;-53
2022/08/13 11:30:09;;;;;;;14.87;10.27;;;25.70;99.90;;;;;;5032558;28;20451;-51
2022/08/13 11:32:37;;;;;;;5.87;5.17;;;25.70;99.90;;;;;;5030360;28;20996;-52
2022/08/13 11:35:04;;;;;;;31.43;17.60;;;25.70;99.90;;;;;;5044716;28;20865;-52
2022/08/13 11:37:31;;;;;;;9.17;5.73;;;25.70;99.90;;;;;;5040358;28;20487;-52
2022/08/13 11:39:58;;;;;;;4.20;3.90;;;25.70;99.90;;;;;;5037207;28;20462;-53
2022/08/13 11:42:25;;;;;;;18.60;12.10;;;25.70;99.90;;;;;;5033994;28;20860;-51
2022/08/13 11:44:51;;;;;;;13.77;10.73;;;25.60;99.90;;;;;;5032533;28;20459;-52
2022/08/13 11:47:18;;;;;;;4.70;4.30;;;25.60;99.90;;;;;;5031376;28;20897;-51
2022/08/13 11:49:46;;;;;;;7.47;4.63;;;25.50;99.90;;;;;;5034759;28;20462;-51
2022/08/13 11:52:12;;;;;;;4.97;4.33;;;25.50;99.90;;;;;;5044910;28;20865;-52
2022/08/13 11:54:39;;;;;;;4.60;4.30;;;25.50;99.90;;;;;;5036406;28;20516;-51
2022/08/13 11:57:07;;;;;;;11.17;4.37;;;25.40;99.90;;;;;;5033106;28;20508;-51
2022/08/13 11:59:34;;;;;;;5.23;4.73;;;25.40;99.90;;;;;;5032527;28;20517;-51
2022/08/13 12:02:00;;;;;;;11.30;7.27;;;25.40;99.90;;;;;;5037219;28;20462;-51
2022/08/13 12:04:27;;;;;;;14.93;10.77;;;25.40;99.90;;;;;;5032641;28;20447;-52
2022/08/13 12:06:55;;;;;;;6.67;4.60;;;25.30;99.90;;;;;;5037743;28;20545;-52
2022/08/13 12:09:22;;;;;;;4.30;3.90;;;25.30;99.90;;;;;;5039204;28;20462;-51
2022/08/13 12:11:49;;;;;;;4.57;3.63;;;25.30;99.90;;;;;;5037920;28;20462;-51
2022/08/13 12:14:15;;;;;;;12.90;10.40;;;25.30;99.90;;;;;;5038621;28;20903;-52
2022/08/13 12:16:42;;;;;;;11.23;4.73;;;25.30;99.90;;;;;;5041396;28;20466;-53
2022/08/13 12:19:08;;;;;;;6.13;5.53;;;25.30;99.90;;;;;;5033927;28;21057;-52
2022/08/13 12:21:35;;;;;;;6.13;5.43;;;25.30;99.90;;;;;;5029346;28;20531;-52
2022/08/13 12:24:04;;;;;;;24.40;16.50;;;25.30;99.90;;;;;;5031962;28;20462;-52
2022/08/13 12:26:31;;;;;;;8.30;7.50;;;25.40;99.90;;;;;;5040550;28;20451;-52
2022/08/13 12:28:57;;;;;;;12.27;4.33;;;25.40;99.90;;;;;;5039783;28;20984;-53
2022/08/13 12:31:24;;;;;;;4.37;3.10;;;25.50;99.90;;;;;;5037851;28;20447;-53
2022/08/13 12:33:50;;;;;;;3.50;3.27;;;25.60;99.90;;;;;;5030979;28;20925;-52
2022/08/13 12:36:17;;;;;;;7.67;4.00;;;25.60;99.90;;;;;;5043868;28;20438;-52
2022/08/13 12:38:44;;;;;;;3.20;3.00;;;25.70;99.90;;;;;;5028551;28;20483;-52
2022/08/13 12:41:12;;;;;;;20.10;12.17;;;25.70;99.90;;;;;;5029134;28;20471;-52
2022/08/13 12:43:38;;;;;;;19.70;12.37;;;25.80;99.90;;;;;;5031867;28;20451;-52
2022/08/13 12:46:05;;;;;;;6.70;5.07;;;26.00;99.90;;;;;;5031334;28;20443;-52
2022/08/13 12:48:32;;;;;;;18.90;9.73;;;26.10;99.90;;;;;;5031341;28;20552;-51
2022/08/13 12:51:00;;;;;;;31.97;14.27;;;26.30;99.90;;;;;;5030690;28;20457;-51
2022/08/13 12:53:27;;;;;;;49.40;33.07;;;26.30;99.90;;;;;;5035571;28;20983;-52
2022/08/13 12:55:53;;;;;;;4.73;4.33;;;26.30;99.90;;;;;;5041983;28;20463;-51
2022/08/13 12:58:23;;;;;;;4.30;3.90;;;26.20;99.90;;;;;;5043623;28;20509;-52
2022/08/13 13:00:52;;;;;;;4.10;3.60;;;26.10;99.90;;;;;;5029266;28;20521;-51
2022/08/13 13:03:19;;;;;;;7.43;3.67;;;26.00;99.90;;;;;;5025719;28;20456;-51
2022/08/13 13:05:47;;;;;;;5.67;3.83;;;25.90;99.90;;;;;;5030490;28;20466;-52
2022/08/13 13:08:16;;;;;;;8.20;7.40;;;25.90;99.90;;;;;;5037752;28;20482;-51